createdAt,value
2019-04-28T00:00:51.270Z,99209.48
2019-04-28T00:03:26.267Z,99215.86
2019-04-28T00:06:01.089Z,99213.22
2019-04-28T00:08:34.107Z,99218.50
2019-04-28T00:11:08.222Z,99210.75
2019-04-28T00:13:41.879Z,99215.67
2019-04-28T00:16:16.323Z,99213.97
2019-04-28T00:18:51.075Z,99209.63
2019-04-28T00:21:26.884Z,99205.28
2019-04-28T00:24:11.556Z,99202.64
2019-04-28T00:26:56.081Z,99206.60
2019-04-28T00:29:38.604Z,99209.63
2019-04-28T00:32:06.335Z,99206.22
2019-04-28T00:34:41.349Z,99205.28
2019-04-28T00:37:16.914Z,99208.08
2019-04-28T00:39:51.086Z,99210.17
2019-04-28T00:42:24.136Z,99207.23
2019-04-28T00:44:58.248Z,99215.45
2019-04-28T00:47:31.322Z,99218.72
2019-04-28T00:50:07.265Z,99206.53
2019-04-28T00:52:41.874Z,99206.53
2019-04-28T00:55:16.047Z,99200.52
2019-04-28T00:57:50.953Z,99206.34
2019-04-28T01:00:26.813Z,99203.23
2019-04-28T01:03:02.159Z,99210.22
2019-04-28T01:05:36.557Z,99215.03
2019-04-28T01:08:11.009Z,99220.77
2019-04-28T01:10:45.205Z,99228.61
2019-04-28T01:13:18.871Z,99241.41
2019-04-28T01:16:06.426Z,99242.73
2019-04-28T01:18:47.887Z,99249.80
2019-04-28T01:21:23.255Z,99244.44
2019-04-28T01:23:57.123Z,99249.14
2019-04-28T01:26:31.059Z,99247.08
2019-04-28T01:29:05.028Z,99251.19
2019-04-28T01:31:52.613Z,99252.52
2019-04-28T01:34:26.618Z,99257.79
2019-04-28T01:37:00.673Z,99259.66
2019-04-28T01:39:34.781Z,99260.66
2019-04-28T01:42:08.009Z,99257.72
2019-04-28T01:44:42.001Z,99263.95
2019-04-28T01:47:20.363Z,99264.66
2019-04-28T01:49:54.445Z,99266.44
2019-04-28T01:52:30.149Z,99276.53
2019-04-28T01:55:05.155Z,99276.91
2019-04-28T01:57:40.034Z,99286.53
2019-04-28T02:00:23.089Z,99280.72
2019-04-28T02:02:51.655Z,99284.59
2019-04-28T02:05:25.549Z,99281.69
2019-04-28T02:08:00.333Z,99282.16
2019-04-28T02:10:34.281Z,99289.22
2019-04-28T02:13:09.601Z,99280.37
2019-04-28T02:15:43.775Z,99284.87
2019-04-28T02:18:17.685Z,99267.99
2019-04-28T02:20:53.329Z,99257.67
2019-04-28T02:23:29.875Z,99260.47
2019-04-28T02:26:04.000Z,99268.72
2019-04-28T02:28:37.789Z,99266.75
2019-04-28T02:31:14.686Z,99276.55
2019-04-28T02:33:50.926Z,99278.41
2019-04-28T02:36:24.271Z,99268.41
2019-04-28T02:38:58.051Z,99254.45
2019-04-28T02:41:33.860Z,99256.39
2019-04-28T02:44:10.296Z,99258.90
2019-04-28T02:46:43.775Z,99250.75
2019-04-28T02:49:21.423Z,99244.34
2019-04-28T02:52:15.183Z,99238.84
2019-04-28T02:54:50.733Z,99231.01
2019-04-28T02:57:24.962Z,99222.78
2019-04-28T03:00:00.478Z,99231.27
2019-04-28T03:02:34.674Z,99226.15
2019-04-28T03:05:11.443Z,99228.47
2019-04-28T03:07:44.457Z,99241.80
2019-04-28T03:10:17.782Z,99240.20
2019-04-28T03:12:52.229Z,99254.19
2019-04-28T03:15:26.156Z,99260.42
2019-04-28T03:18:01.887Z,99280.08
2019-04-28T03:20:35.907Z,99291.40
2019-04-28T03:23:12.125Z,99303.50
2019-04-28T03:25:45.391Z,99301.65
2019-04-28T03:28:30.783Z,99306.73
2019-04-28T03:31:40.436Z,99316.34
2019-04-28T03:33:48.542Z,99324.19
2019-04-28T03:36:23.127Z,99317.45
2019-04-28T03:38:53.697Z,99309.86
2019-04-28T03:41:27.754Z,99306.83
2019-04-28T03:44:00.781Z,99288.84
2019-04-28T03:46:36.351Z,99277.52
2019-04-28T03:49:11.920Z,99286.44
2019-04-28T03:51:45.784Z,99282.27
2019-04-28T03:54:20.395Z,99288.55
2019-04-28T03:56:54.357Z,99288.30
2019-04-28T03:59:30.973Z,99294.81
2019-04-28T04:02:04.096Z,99289.16
2019-04-28T04:04:37.883Z,99283.11
2019-04-28T04:07:11.712Z,99287.13
2019-04-28T04:09:47.138Z,99275.38
2019-04-28T04:12:22.742Z,99270.19
2019-04-28T04:15:13.344Z,99268.09
2019-04-28T04:18:03.747Z,99268.70
2019-04-28T04:20:37.530Z,99269.23
2019-04-28T04:23:11.612Z,99266.39
2019-04-28T04:25:45.501Z,99264.61
2019-04-28T04:28:20.613Z,99256.54
2019-04-28T04:30:54.915Z,99265.08
2019-04-28T04:33:30.759Z,99259.70
2019-04-28T04:36:02.904Z,99273.45
2019-04-28T04:38:40.049Z,99269.64
2019-04-28T04:41:12.270Z,99277.69
2019-04-28T04:43:46.075Z,99272.10
2019-04-28T04:46:24.193Z,99273.73
2019-04-28T04:49:00.394Z,99271.11
2019-04-28T04:51:33.909Z,99283.34
2019-04-28T04:54:10.618Z,99275.91
2019-04-28T04:56:43.801Z,99277.69
2019-04-28T04:59:16.934Z,99284.27
2019-04-28T05:02:09.822Z,99281.10
2019-04-28T05:04:44.919Z,99283.48
2019-04-28T05:07:19.668Z,99286.91
2019-04-28T05:09:53.662Z,99285.59
2019-04-28T05:12:27.464Z,99285.98
2019-04-28T05:15:01.418Z,99284.66
2019-04-28T05:17:35.288Z,99286.52
2019-04-28T05:20:09.965Z,99298.76
2019-04-28T05:22:50.257Z,99305.34
2019-04-28T05:25:32.433Z,99299.94
2019-04-28T05:28:04.631Z,99298.08
2019-04-28T05:30:39.708Z,99308.62
2019-04-28T05:33:15.625Z,99300.64
2019-04-28T05:35:50.078Z,99297.91
2019-04-28T05:38:23.978Z,99298.76
2019-04-28T05:40:57.972Z,99302.17
2019-04-28T05:43:31.135Z,99303.73
2019-04-28T05:46:05.218Z,99311.39
2019-04-28T05:48:52.807Z,99326.27
2019-04-28T05:51:34.195Z,99318.22
2019-04-28T05:54:15.661Z,99323.49
2019-04-28T05:57:02.353Z,99328.47
2019-04-28T05:59:46.573Z,99323.02
2019-04-28T06:02:39.557Z,99331.71
2019-04-28T06:05:13.333Z,99335.44
2019-04-28T06:08:03.875Z,99340.46
2019-04-28T06:10:39.845Z,99361.72
2019-04-28T06:13:13.741Z,99358.83
2019-04-28T06:15:49.758Z,99351.63
2019-04-28T06:18:23.773Z,99346.13
2019-04-28T06:20:57.621Z,99357.28
2019-04-28T06:23:31.515Z,99355.34
2019-04-28T06:26:05.494Z,99364.74
2019-04-28T06:28:39.333Z,99361.56
2019-04-28T06:31:13.665Z,99366.30
2019-04-28T06:33:47.553Z,99373.49
2019-04-28T06:36:21.509Z,99371.55
2019-04-28T06:38:55.463Z,99378.86
2019-04-28T06:41:29.509Z,99369.08
2019-04-28T06:44:02.879Z,99372.31
2019-04-28T06:46:36.840Z,99371.23
2019-04-28T06:49:11.022Z,99365.02
2019-04-28T06:51:46.897Z,99361.34
2019-04-28T06:54:21.237Z,99353.36
2019-04-28T06:56:55.349Z,99362.05
2019-04-28T06:59:29.092Z,99375.01
2019-04-28T07:02:03.169Z,99377.45
2019-04-28T07:04:36.431Z,99373.03
2019-04-28T07:07:10.590Z,99375.44
2019-04-28T07:09:44.823Z,99381.96
2019-04-28T07:12:19.308Z,99376.80
2019-04-28T07:14:53.583Z,99392.41
2019-04-28T07:17:27.664Z,99396.22
2019-04-28T07:20:03.311Z,99401.42
2019-04-28T07:22:37.765Z,99410.55
2019-04-28T07:25:12.159Z,99414.35
2019-04-28T07:27:46.050Z,99409.45
2019-04-28T07:30:21.616Z,99418.16
2019-04-28T07:32:55.807Z,99414.58
2019-04-28T07:35:30.053Z,99421.57
2019-04-28T07:38:03.473Z,99427.98
2019-04-28T07:40:37.738Z,99424.48
2019-04-28T07:43:11.845Z,99426.85
2019-04-28T07:45:44.893Z,99432.41
2019-04-28T07:48:18.847Z,99431.09
2019-04-28T07:50:52.897Z,99433.45
2019-04-28T07:53:27.615Z,99433.84
2019-04-28T07:56:01.563Z,99445.72
2019-04-28T07:58:35.596Z,99434.59
2019-04-28T08:01:10.470Z,99443.28
2019-04-28T08:03:49.787Z,99442.73
2019-04-28T08:06:20.033Z,99447.01
2019-04-28T08:08:54.277Z,99446.73
2019-04-28T08:11:28.344Z,99456.22
2019-04-28T08:14:02.434Z,99449.45
2019-04-28T08:16:36.576Z,99454.78
2019-04-28T08:19:10.245Z,99463.59
2019-04-28T08:21:44.224Z,99457.14
2019-04-28T08:24:20.077Z,99463.28
2019-04-28T08:26:54.387Z,99465.66
2019-04-28T08:29:28.624Z,99464.17
2019-04-28T08:32:20.779Z,99474.19
2019-04-28T08:34:55.048Z,99476.67
2019-04-28T08:37:29.095Z,99486.20
2019-04-28T08:40:02.801Z,99487.05
2019-04-28T08:42:36.701Z,99498.02
2019-04-28T08:45:10.905Z,99491.59
2019-04-28T08:47:45.304Z,99493.11
2019-04-28T08:50:19.166Z,99489.77
2019-04-28T08:52:52.981Z,99490.92
2019-04-28T08:55:27.211Z,99485.36
2019-04-28T08:58:01.096Z,99480.77
2019-04-28T09:00:35.052Z,99493.23
2019-04-28T09:03:09.387Z,99487.41
2019-04-28T09:05:43.495Z,99490.85
2019-04-28T09:08:16.923Z,99492.56
2019-04-28T09:10:50.919Z,99496.75
2019-04-28T09:13:25.050Z,99495.62
2019-04-28T09:15:58.366Z,99489.80
2019-04-28T09:18:32.415Z,99487.02
2019-04-28T09:21:05.715Z,99487.06
2019-04-28T09:23:39.775Z,99490.41
2019-04-28T09:26:13.062Z,99495.24
2019-04-28T09:28:47.114Z,99487.70
2019-04-28T09:31:20.422Z,99486.21
2019-04-28T09:33:54.515Z,99492.48
2019-04-28T09:36:27.788Z,99495.34
2019-04-28T09:39:02.109Z,99497.09
2019-04-28T09:41:37.770Z,99502.38
2019-04-28T09:44:16.173Z,99501.05
2019-04-28T09:46:51.748Z,99508.44
2019-04-28T09:49:25.895Z,99512.20
2019-04-28T09:51:59.098Z,99523.95
2019-04-28T09:54:32.961Z,99523.95
2019-04-28T09:57:06.854Z,99526.39
2019-04-28T09:59:40.696Z,99528.66
2019-04-28T10:02:14.519Z,99526.22
2019-04-28T10:04:48.409Z,99528.57
2019-04-28T10:07:22.322Z,99523.56
2019-04-28T10:09:56.343Z,99536.98
2019-04-28T10:12:30.306Z,99519.00
2019-04-28T10:15:05.836Z,99534.52
2019-04-28T10:17:39.637Z,99532.45
2019-04-28T10:20:13.587Z,99528.40
2019-04-28T10:22:47.805Z,99523.27
2019-04-28T10:25:21.630Z,99529.59
2019-04-28T10:27:55.634Z,99541.13
2019-04-28T10:30:28.995Z,99540.88
2019-04-28T10:33:03.277Z,99547.61
2019-04-28T10:35:37.614Z,99540.41
2019-04-28T10:38:11.768Z,99552.53
2019-04-28T10:40:46.802Z,99555.27
2019-04-28T10:43:20.846Z,99561.59
2019-04-28T10:45:54.056Z,99560.09
2019-04-28T10:48:28.333Z,99554.80
2019-04-28T10:51:02.243Z,99563.39
2019-04-28T10:53:36.301Z,99564.24
2019-04-28T10:56:09.580Z,99575.44
2019-04-28T10:58:45.221Z,99575.05
2019-04-28T11:01:19.529Z,99569.66
2019-04-28T11:03:55.173Z,99572.22
2019-04-28T11:06:29.611Z,99575.44
2019-04-28T11:09:05.605Z,99574.20
2019-04-28T11:11:39.689Z,99565.39
2019-04-28T11:14:14.599Z,99560.77
2019-04-28T11:16:47.744Z,99551.41
2019-04-28T11:19:21.754Z,99553.33
2019-04-28T11:21:54.940Z,99546.25
2019-04-28T11:24:29.035Z,99549.08
2019-04-28T11:27:02.575Z,99555.91
2019-04-28T11:29:36.507Z,99561.11
2019-04-28T11:32:10.822Z,99565.56
2019-04-28T11:35:02.657Z,99572.28
2019-04-28T11:37:36.652Z,99582.58
2019-04-28T11:40:11.057Z,99590.06
2019-04-28T11:42:45.094Z,99589.86
2019-04-28T11:45:18.315Z,99593.80
2019-04-28T11:47:52.530Z,99602.30
2019-04-28T11:50:26.627Z,99605.97
2019-04-28T11:52:59.757Z,99607.17
2019-04-28T11:55:33.703Z,99595.42
2019-04-28T11:58:08.139Z,99582.19
2019-04-28T12:00:42.229Z,99572.57
2019-04-28T12:03:15.451Z,99573.72
2019-04-28T12:05:51.369Z,99575.52
2019-04-28T12:08:25.386Z,99581.87
2019-04-28T12:11:16.274Z,99571.13
2019-04-28T12:14:07.101Z,99578.72
2019-04-28T12:16:45.357Z,99567.92
2019-04-28T12:19:20.741Z,99569.64
2019-04-28T12:21:54.673Z,99572.86
2019-04-28T12:24:28.757Z,99566.78
2019-04-28T12:27:01.791Z,99573.31
2019-04-28T12:29:35.874Z,99564.51
2019-04-28T12:32:09.356Z,99560.91
2019-04-28T12:34:43.335Z,99561.00
2019-04-28T12:37:17.283Z,99556.05
2019-04-28T12:39:51.199Z,99556.69
2019-04-28T12:42:25.257Z,99550.87
2019-04-28T12:44:58.397Z,99557.04
2019-04-28T12:47:33.423Z,99549.08
2019-04-28T12:50:21.531Z,99559.13
2019-04-28T12:52:55.523Z,99560.86
2019-04-28T12:55:29.345Z,99560.10
2019-04-28T12:58:05.096Z,99577.56
2019-04-28T13:00:46.647Z,99579.84
2019-04-28T13:03:38.645Z,99584.41
2019-04-28T13:06:20.165Z,99583.84
2019-04-28T13:08:54.110Z,99578.34
2019-04-28T13:11:27.916Z,99574.72
2019-04-28T13:14:01.936Z,99573.02
2019-04-28T13:16:35.739Z,99587.35
2019-04-28T13:19:09.596Z,99591.80
2019-04-28T13:21:43.441Z,99591.67
2019-04-28T13:24:17.503Z,99594.95
2019-04-28T13:26:52.334Z,99617.14
2019-04-28T13:29:26.493Z,99610.20
2019-04-28T13:31:59.706Z,99613.19
2019-04-28T13:34:35.260Z,99611.20
2019-04-28T13:37:09.590Z,99607.18
2019-04-28T13:39:51.187Z,99607.70
2019-04-28T13:42:25.383Z,99606.52
2019-04-28T13:45:03.277Z,99611.78
2019-04-28T13:47:37.107Z,99619.49
2019-04-28T13:50:19.878Z,99616.43
2019-04-28T13:52:56.189Z,99620.55
2019-04-28T13:55:40.732Z,99623.36
2019-04-28T13:58:16.409Z,99630.05
2019-04-28T14:01:10.000Z,99623.94
2019-04-28T14:03:58.177Z,99632.03
2019-04-28T14:06:39.699Z,99618.11
2019-04-28T14:09:15.401Z,99617.41
2019-04-28T14:11:49.320Z,99617.06
2019-04-28T14:14:23.272Z,99618.19
2019-04-28T14:16:57.590Z,99624.25
2019-04-28T14:19:32.052Z,99627.52
2019-04-28T14:22:06.227Z,99625.62
2019-04-28T14:24:39.818Z,99625.06
2019-04-28T14:27:14.238Z,99630.75
2019-04-28T14:29:48.225Z,99626.94
2019-04-28T14:32:22.489Z,99626.00
2019-04-28T14:34:56.811Z,99628.49
2019-04-28T14:37:30.995Z,99627.01
2019-04-28T14:40:05.489Z,99622.96
2019-04-28T14:42:40.230Z,99626.63
2019-04-28T14:45:14.625Z,99613.94
2019-04-28T14:47:48.739Z,99631.68
2019-04-28T14:50:22.031Z,99620.52
2019-04-28T14:52:55.949Z,99639.11
2019-04-28T14:55:29.895Z,99640.66
2019-04-28T14:58:03.719Z,99640.55
2019-04-28T15:00:42.243Z,99651.32
2019-04-28T15:03:17.377Z,99646.30
2019-04-28T15:06:05.156Z,99665.27
2019-04-28T15:08:56.902Z,99652.98
2019-04-28T15:11:35.496Z,99658.66
2019-04-28T15:14:09.612Z,99655.70
2019-04-28T15:16:42.824Z,99662.16
2019-04-28T15:19:17.064Z,99662.80
2019-04-28T15:21:54.443Z,99665.53
2019-04-28T15:24:27.497Z,99662.88
2019-04-28T15:27:01.538Z,99657.20
2019-04-28T15:29:34.838Z,99655.11
2019-04-28T15:32:08.883Z,99652.54
2019-04-28T15:34:41.930Z,99647.91
2019-04-28T15:37:15.958Z,99651.77
2019-04-28T15:39:49.258Z,99629.95
2019-04-28T15:42:23.083Z,99630.88
2019-04-28T15:44:57.173Z,99636.16
2019-04-28T15:47:30.701Z,99643.16
2019-04-28T15:50:06.788Z,99645.80
2019-04-28T15:52:40.669Z,99638.73
2019-04-28T15:55:16.401Z,99642.69
2019-04-28T15:57:50.643Z,99641.84
2019-04-28T16:00:24.777Z,99637.48
2019-04-28T16:02:58.118Z,99638.81
2019-04-28T16:05:32.810Z,99643.31
2019-04-28T16:08:07.127Z,99633.83
2019-04-28T16:10:41.217Z,99640.04
2019-04-28T16:13:14.303Z,99643.26
2019-04-28T16:15:49.139Z,99650.80
2019-04-28T16:18:23.227Z,99655.45
2019-04-28T16:20:56.511Z,99653.13
2019-04-28T16:23:30.819Z,99659.57
2019-04-28T16:26:05.043Z,99658.11
2019-04-28T16:28:39.205Z,99662.47
2019-04-28T16:31:13.378Z,99664.33
2019-04-28T16:33:47.431Z,99662.54
2019-04-28T16:36:20.561Z,99663.08
2019-04-28T16:38:56.412Z,99663.54
2019-04-28T16:41:31.330Z,99669.90
2019-04-28T16:44:05.680Z,99667.26
2019-04-28T16:46:39.880Z,99671.40
2019-04-28T16:49:13.875Z,99671.79
2019-04-28T16:51:48.122Z,99682.81
2019-04-28T16:54:22.279Z,99683.42
2019-04-28T16:57:10.013Z,99688.45
2019-04-28T16:59:45.652Z,99687.31
2019-04-28T17:02:33.590Z,99693.91
2019-04-28T17:05:08.209Z,99685.60
2019-04-28T17:07:52.300Z,99697.95
2019-04-28T17:10:18.592Z,99692.73
2019-04-28T17:12:53.105Z,99691.95
2019-04-28T17:15:30.182Z,99691.42
2019-04-28T17:18:03.073Z,99696.23
2019-04-28T17:20:36.334Z,99699.73
2019-04-28T17:23:10.401Z,99697.16
2019-04-28T17:25:43.761Z,99699.48
2019-04-28T17:28:18.405Z,99698.16
2019-04-28T17:30:52.649Z,99702.27
2019-04-28T17:33:27.278Z,99696.13
2019-04-28T17:36:01.271Z,99690.95
2019-04-28T17:38:34.580Z,99696.23
2019-04-28T17:41:08.860Z,99699.41
2019-04-28T17:43:43.122Z,99699.47
2019-04-28T17:46:17.114Z,99706.53
2019-04-28T17:48:57.815Z,99700.47
2019-04-28T17:51:32.057Z,99707.06
2019-04-28T17:54:06.291Z,99695.33
2019-04-28T17:56:40.371Z,99704.21
2019-04-28T17:59:14.637Z,99695.58
2019-04-28T18:02:05.645Z,99693.00
2019-04-28T18:04:47.313Z,99684.30
2019-04-28T18:07:23.243Z,99688.79
2019-04-28T18:09:57.629Z,99689.72
2019-04-28T18:12:32.358Z,99694.77
2019-04-28T18:15:15.673Z,99686.60
2019-04-28T18:17:56.955Z,99687.06
2019-04-28T18:20:31.446Z,99695.05
2019-04-28T18:23:05.547Z,99703.42
2019-04-28T18:25:38.808Z,99710.13
2019-04-28T18:28:12.678Z,99707.38
2019-04-28T18:30:48.434Z,99712.27
2019-04-28T18:33:32.972Z,99716.72
2019-04-28T18:36:14.422Z,99722.75
2019-04-28T18:38:56.049Z,99730.67
2019-04-28T18:41:40.274Z,99733.23
2019-04-28T18:44:18.490Z,99737.20
2019-04-28T18:46:52.673Z,99735.42
2019-04-28T18:49:26.910Z,99737.73
2019-04-28T18:52:00.900Z,99731.59
2019-04-28T18:54:35.212Z,99728.20
2019-04-28T18:57:09.188Z,99731.77
2019-04-28T18:59:43.396Z,99741.86
2019-04-28T19:02:27.567Z,99739.22
2019-04-28T19:05:01.681Z,99738.75
2019-04-28T19:07:39.313Z,99749.31
2019-04-28T19:10:15.085Z,99745.88
2019-04-28T19:12:50.589Z,99753.07
2019-04-28T19:15:41.231Z,99754.06
2019-04-28T19:18:25.554Z,99749.34
2019-04-28T19:20:59.823Z,99767.72
2019-04-28T19:23:35.247Z,99768.28
2019-04-28T19:26:09.434Z,99763.76
2019-04-28T19:28:43.416Z,99771.21
2019-04-28T19:31:18.015Z,99775.17
2019-04-28T19:33:52.096Z,99764.62
2019-04-28T19:36:25.399Z,99771.67
2019-04-28T19:39:03.590Z,99768.17
2019-04-28T19:41:35.591Z,99762.27
2019-04-28T19:44:09.845Z,99764.13
2019-04-28T19:46:44.058Z,99756.27
2019-04-28T19:49:18.197Z,99762.02
2019-04-28T19:51:51.749Z,99764.25
2019-04-28T19:54:27.598Z,99774.41
2019-04-28T19:57:06.160Z,99765.27
2019-04-28T19:59:57.949Z,99769.23
2019-04-28T20:02:33.511Z,99777.44
2019-04-28T20:05:08.682Z,99775.73
2019-04-28T20:07:42.977Z,99781.80
2019-04-28T20:10:17.277Z,99785.23
2019-04-28T20:12:51.265Z,99786.02
2019-04-28T20:15:25.499Z,99785.09
2019-04-28T20:17:59.949Z,99780.67
2019-04-28T20:20:34.063Z,99779.82
2019-04-28T20:23:07.736Z,99786.88
2019-04-28T20:25:42.104Z,99788.66
2019-04-28T20:28:16.409Z,99780.08
2019-04-28T20:30:50.630Z,99782.48
2019-04-28T20:33:24.847Z,99786.97
2019-04-28T20:36:16.803Z,99787.49
2019-04-28T20:38:52.988Z,99794.94
2019-04-28T20:41:28.726Z,99796.33
2019-04-28T20:44:03.010Z,99798.56
2019-04-28T20:46:37.139Z,99804.70
2019-04-28T20:49:10.822Z,99806.88
2019-04-28T20:51:44.905Z,99805.89
2019-04-28T20:54:18.435Z,99805.16
2019-04-28T20:56:52.547Z,99810.44
2019-04-28T20:59:26.632Z,99810.44
2019-04-28T21:02:00.217Z,99815.28
2019-04-28T21:04:34.216Z,99814.88
2019-04-28T21:07:08.175Z,99813.33
2019-04-28T21:09:42.430Z,99812.01
2019-04-28T21:12:16.539Z,99815.56
2019-04-28T21:14:50.191Z,99819.39
2019-04-28T21:17:24.418Z,99813.72
2019-04-28T21:19:57.699Z,99823.81
2019-04-28T21:22:31.948Z,99818.60
2019-04-28T21:25:06.763Z,99817.02
2019-04-28T21:27:40.815Z,99809.16
2019-04-28T21:30:14.514Z,99810.55
2019-04-28T21:32:48.575Z,99814.14
2019-04-28T21:35:22.035Z,99818.22
2019-04-28T21:37:55.954Z,99822.57
2019-04-28T21:40:30.325Z,99821.77
2019-04-28T21:43:12.014Z,99825.73
2019-04-28T21:45:50.367Z,99819.66
2019-04-28T21:48:40.312Z,99816.63
2019-04-28T21:51:14.201Z,99810.66
2019-04-28T21:53:48.311Z,99808.60
2019-04-28T21:56:22.393Z,99807.80
2019-04-28T21:58:55.631Z,99808.48
2019-04-28T22:01:29.764Z,99812.95
2019-04-28T22:04:04.387Z,99814.92
2019-04-28T22:06:38.296Z,99819.80
2019-04-28T22:09:12.649Z,99818.08
2019-04-28T22:11:46.638Z,99809.77
2019-04-28T22:14:19.945Z,99811.64
2019-04-28T22:16:54.024Z,99816.52
2019-04-28T22:19:27.253Z,99820.98
2019-04-28T22:22:01.232Z,99816.63
2019-04-28T22:24:35.989Z,99811.09
2019-04-28T22:27:11.254Z,99815.09
2019-04-28T22:29:45.287Z,99808.45
2019-04-28T22:32:18.551Z,99819.39
2019-04-28T22:34:52.593Z,99819.39
2019-04-28T22:37:25.751Z,99823.34
2019-04-28T22:39:59.758Z,99831.19
2019-04-28T22:42:33.003Z,99821.97
2019-04-28T22:45:08.336Z,99817.95
2019-04-28T22:47:42.499Z,99815.31
2019-04-28T22:50:36.642Z,99817.95
2019-04-28T22:53:10.750Z,99815.72
2019-04-28T22:55:45.551Z,99816.17
2019-04-28T22:58:29.385Z,99815.20
2019-04-28T23:01:13.798Z,99818.63
2019-04-28T23:03:52.240Z,99815.99
2019-04-28T23:06:26.243Z,99824.66
2019-04-28T23:08:59.383Z,99823.23
2019-04-28T23:11:33.564Z,99819.15
2019-04-28T23:14:06.765Z,99816.52
2019-04-28T23:16:40.805Z,99813.48
2019-04-28T23:19:15.823Z,99816.97
2019-04-28T23:21:57.592Z,99817.83
2019-04-28T23:24:31.779Z,99820.07
2019-04-28T23:27:05.708Z,99816.11
2019-04-28T23:29:39.617Z,99819.55
2019-04-28T23:32:13.678Z,99811.24
2019-04-28T23:34:47.062Z,99819.55
2019-04-28T23:37:21.249Z,99815.20
2019-04-28T23:39:55.392Z,99819.15
2019-04-28T23:42:33.884Z,99815.59
2019-04-28T23:45:08.280Z,99811.24
2019-04-28T23:47:42.444Z,99808.61
2019-04-28T23:50:18.173Z,99809.53
2019-04-28T23:52:56.375Z,99803.39
2019-04-28T23:55:30.373Z,99805.11
2019-04-28T23:58:03.565Z,99805.17
